Greenspond, Canada
Current Conditions -  °F | °C
As of 11:00 AM on Thursday 29 Jan 2015 (Local Time) from CYQX Reporting Station
Broken Clouds Broken Clouds  
Wind Chill: 26°   Ceiling: 1600
Heat Index: 36°   Visibility: 20mi
Dew Point: 32°   Wind: 16mph
Humidity: 87%   Direction: 260°W
Pressure: 29.88"   Gusts: 25mph
Location:  49.05°N, 53.58°W
Report Text: CYQX 291400Z 26014G22KT 20SM BKN016 BKN040 02/M00 A2988 RMK SC5SC1 SLP124
Loading
Personal Weather Stations






























Interactive Weather Map New forecast layout! Learn more

10-Day Weather Forecast

Advertisements
Track Severe Weather on mobile